createdAt,value
2023-02-07T00:01:19.810Z,5.80
2023-02-07T00:03:47.440Z,3.65
2023-02-07T00:06:20.287Z,4.95
2023-02-07T00:08:47.236Z,3.72
2023-02-07T00:11:17.070Z,3.67
2023-02-07T00:13:44.895Z,4.38
2023-02-07T00:16:12.127Z,4.03
2023-02-07T00:18:38.872Z,4.50
2023-02-07T00:21:14.238Z,4.47
2023-02-07T00:23:41.723Z,5.70
2023-02-07T00:26:09.449Z,4.35
2023-02-07T00:28:36.717Z,3.67
2023-02-07T00:31:03.708Z,3.22
2023-02-07T00:33:30.904Z,4.95
2023-02-07T00:36:02.210Z,4.40
2023-02-07T00:38:28.969Z,3.97
2023-02-07T00:40:55.848Z,5.63
2023-02-07T00:43:29.693Z,4.00
2023-02-07T00:45:59.518Z,4.35
2023-02-07T00:48:30.479Z,4.88
2023-02-07T00:50:57.705Z,3.00
2023-02-07T00:53:24.940Z,4.22
2023-02-07T00:55:51.732Z,3.38
2023-02-07T00:58:18.564Z,4.75
2023-02-07T05:00:56.851Z,7.80
2023-02-07T05:03:23.698Z,7.68
2023-02-07T05:05:53.596Z,6.70
2023-02-07T05:08:20.673Z,5.75
2023-02-07T05:10:47.545Z,6.65
2023-02-07T05:13:14.235Z,7.22
2023-02-07T05:15:41.095Z,8.13
2023-02-07T05:18:07.841Z,9.13
2023-02-07T05:20:34.552Z,8.75
2023-02-07T05:23:01.330Z,8.45
2023-02-07T05:25:28.365Z,9.05
2023-02-07T05:27:55.361Z,7.57
2023-02-07T05:30:22.309Z,8.00
2023-02-07T05:33:04.060Z,7.93
2023-02-07T05:35:36.169Z,6.03
2023-02-07T05:38:06.288Z,7.03
2023-02-07T05:40:33.701Z,6.20
2023-02-07T05:43:00.568Z,7.22
2023-02-07T05:45:27.295Z,6.05
2023-02-07T05:47:54.201Z,6.13
2023-02-07T05:50:21.168Z,5.50
2023-02-07T05:52:48.013Z,6.28
2023-02-07T05:55:15.327Z,5.07
2023-02-07T05:57:43.559Z,4.18
2023-02-07T06:00:13.040Z,5.10
2023-02-07T06:02:40.771Z,4.85
2023-02-07T06:05:09.443Z,5.28
2023-02-07T06:07:36.345Z,4.40
2023-02-07T06:10:05.324Z,4.82
2023-02-07T06:12:33.308Z,6.15
2023-02-07T06:15:00.209Z,6.10
2023-02-07T06:17:27.677Z,5.85
2023-02-07T06:19:54.409Z,5.43
2023-02-07T06:22:21.265Z,7.10
2023-02-07T06:24:48.076Z,5.50
2023-02-07T06:27:14.855Z,4.68
2023-02-07T06:29:41.579Z,4.85
2023-02-07T06:32:08.363Z,5.07
2023-02-07T06:34:35.075Z,4.53
2023-02-07T06:37:01.852Z,4.63
2023-02-07T06:39:28.594Z,4.97
2023-02-07T06:41:55.303Z,4.20
2023-02-07T06:44:22.028Z,5.47
2023-02-07T06:46:48.705Z,6.35
2023-02-07T06:49:15.569Z,5.03
2023-02-07T06:51:42.286Z,5.40
2023-02-07T06:54:10.042Z,5.15
2023-02-07T06:56:37.877Z,5.60
2023-02-07T06:59:05.089Z,5.00
2023-02-07T07:01:32.004Z,6.70
2023-02-07T07:03:59.026Z,5.78
2023-02-07T07:06:26.125Z,5.22
2023-02-07T07:08:52.913Z,4.15
2023-02-07T07:11:20.016Z,6.15
2023-02-07T07:13:47.089Z,5.47
2023-02-07T07:16:14.269Z,6.18
2023-02-07T07:18:41.489Z,5.68
2023-02-07T07:21:08.796Z,5.60
2023-02-07T07:23:35.816Z,5.82
2023-02-07T07:26:02.559Z,6.20
2023-02-07T07:28:29.236Z,6.00
2023-02-07T07:31:01.726Z,5.97
2023-02-07T07:35:58.006Z,5.80
2023-02-07T07:38:24.720Z,7.75
2023-02-07T07:40:51.482Z,6.75
2023-02-07T07:43:18.192Z,7.97
2023-02-07T07:45:45.707Z,5.95
2023-02-07T07:48:12.684Z,6.25
2023-02-07T07:50:39.632Z,7.53
2023-02-07T07:53:06.588Z,6.95
2023-02-07T07:55:33.351Z,6.75
2023-02-07T07:58:00.110Z,6.75
2023-02-07T08:00:26.892Z,7.20
2023-02-07T08:02:53.744Z,5.97
2023-02-07T08:05:20.389Z,7.63
2023-02-07T08:07:47.209Z,6.75
2023-02-07T08:10:14.046Z,6.20
2023-02-07T08:12:42.026Z,6.20
2023-02-07T08:15:10.158Z,5.70
2023-02-07T08:17:37.388Z,6.43
2023-02-07T08:20:05.394Z,7.20
2023-02-07T08:22:32.259Z,6.45
2023-02-07T08:24:58.975Z,7.35
2023-02-07T08:27:25.685Z,6.97
2023-02-07T08:29:52.406Z,4.97
2023-02-07T08:32:19.129Z,4.15
2023-02-07T08:34:45.904Z,3.88
2023-02-07T08:37:13.172Z,5.47
2023-02-07T08:39:40.189Z,6.03
2023-02-07T08:42:10.571Z,4.40
2023-02-07T08:44:37.781Z,5.78
2023-02-07T08:47:04.704Z,6.03
2023-02-07T08:49:31.513Z,6.40
2023-02-07T08:51:58.292Z,6.53
2023-02-07T08:54:25.200Z,6.88
2023-02-07T08:56:51.852Z,5.45
2023-02-07T08:59:18.515Z,6.00
2023-02-07T09:01:45.233Z,5.97
2023-02-07T09:04:11.898Z,5.65
2023-02-07T09:06:39.486Z,4.63
2023-02-07T09:09:06.909Z,7.28
2023-02-07T09:11:34.061Z,6.38
2023-02-07T09:14:01.341Z,5.63
2023-02-07T09:16:28.391Z,8.02
2023-02-07T09:18:55.202Z,4.70
2023-02-07T09:21:22.203Z,5.70
2023-02-07T09:23:49.436Z,5.22
2023-02-07T09:26:21.696Z,5.93
2023-02-07T09:28:49.028Z,5.60
2023-02-07T09:31:16.625Z,7.57
2023-02-07T09:33:46.556Z,5.85
2023-02-07T09:36:19.296Z,4.78
2023-02-07T09:38:47.360Z,5.63
2023-02-07T09:41:26.860Z,3.58
2023-02-07T09:44:25.898Z,5.47
2023-02-07T09:47:05.163Z,4.68
2023-02-07T09:49:34.514Z,5.88
2023-02-07T09:52:04.213Z,4.97
2023-02-07T09:54:39.239Z,7.22
2023-02-07T09:57:20.432Z,5.22
2023-02-07T09:59:57.688Z,6.25
2023-02-07T10:02:51.704Z,6.63
2023-02-07T10:05:34.251Z,7.15
2023-02-07T10:08:01.056Z,6.82
2023-02-07T10:10:45.300Z,6.45
2023-02-07T10:13:30.272Z,7.47
2023-02-07T10:16:19.541Z,8.15
2023-02-07T10:18:57.741Z,8.55
2023-02-07T10:21:42.917Z,7.63
2023-02-07T10:24:25.950Z,9.25
2023-02-07T10:27:14.334Z,9.13
2023-02-07T10:29:49.973Z,8.32
2023-02-07T10:32:44.655Z,8.23
2023-02-07T10:35:19.789Z,9.23
2023-02-07T10:37:50.570Z,7.90
2023-02-07T10:40:21.793Z,9.00
2023-02-07T10:42:56.605Z,9.85
2023-02-07T10:45:23.393Z,12.63
2023-02-07T10:47:50.139Z,8.90
2023-02-07T10:50:29.419Z,9.45
2023-02-07T10:52:58.188Z,8.10
2023-02-07T10:55:44.880Z,10.13
2023-02-07T10:58:22.765Z,9.60
2023-02-07T11:00:52.426Z,9.25
2023-02-07T11:03:22.005Z,7.70
2023-02-07T11:06:02.703Z,11.13
2023-02-07T11:08:32.658Z,10.10
2023-02-07T11:11:17.285Z,11.38
2023-02-07T11:13:50.603Z,11.10
2023-02-07T11:16:19.672Z,9.68
2023-02-07T11:19:03.647Z,11.20
2023-02-07T11:21:33.462Z,11.18
2023-02-07T11:24:12.399Z,11.02
2023-02-07T11:27:18.734Z,10.13
2023-02-07T11:29:59.215Z,10.75
2023-02-07T11:32:28.316Z,10.90
2023-02-07T11:34:59.029Z,10.18
2023-02-07T11:37:29.258Z,10.75
2023-02-07T11:40:21.210Z,8.05
2023-02-07T11:42:49.509Z,8.90
2023-02-07T11:45:21.297Z,8.70
2023-02-07T11:47:51.389Z,9.82
2023-02-07T11:50:26.204Z,9.18
2023-02-07T11:52:57.310Z,8.20
2023-02-07T11:55:44.244Z,8.93
2023-02-07T11:58:20.144Z,9.00
2023-02-07T12:00:47.658Z,10.60
2023-02-07T12:03:42.740Z,10.75
2023-02-07T12:06:18.278Z,12.13
2023-02-07T12:08:45.992Z,10.70
2023-02-07T12:11:20.965Z,10.68
2023-02-07T12:13:54.561Z,13.45
2023-02-07T12:16:26.552Z,10.98
2023-02-07T12:19:19.439Z,11.27
2023-02-07T12:21:58.503Z,12.18
2023-02-07T12:24:33.859Z,9.52
2023-02-07T12:27:12.148Z,9.90
2023-02-07T12:29:47.825Z,9.38
2023-02-07T12:32:33.180Z,9.77
2023-02-07T12:35:21.711Z,9.35
2023-02-07T12:37:55.588Z,9.88
2023-02-07T12:40:39.266Z,10.82
2023-02-07T12:43:33.966Z,10.73
2023-02-07T12:46:00.808Z,10.18
2023-02-07T12:48:54.503Z,9.88
2023-02-07T12:51:42.816Z,8.15
2023-02-07T12:54:30.592Z,8.60
2023-02-07T12:57:19.437Z,8.18
2023-02-07T13:00:19.413Z,7.10
2023-02-07T13:02:58.128Z,8.98
2023-02-07T13:05:46.769Z,7.13
2023-02-07T13:08:17.769Z,7.97
2023-02-07T13:11:24.512Z,6.85
2023-02-07T13:14:12.456Z,7.78
2023-02-07T13:17:02.614Z,7.25
2023-02-07T13:19:44.189Z,7.05
2023-02-07T13:22:27.519Z,7.00
2023-02-07T13:24:55.695Z,6.00
2023-02-07T13:27:25.044Z,6.13
2023-02-07T13:29:52.655Z,6.68
2023-02-07T13:32:23.259Z,6.10
2023-02-07T13:35:13.524Z,7.15
2023-02-07T13:38:09.529Z,5.05
2023-02-07T13:40:58.874Z,5.47
2023-02-07T13:44:09.041Z,4.13
2023-02-07T13:47:11.319Z,4.85
2023-02-07T13:49:56.627Z,3.35
2023-02-07T13:52:38.696Z,4.20
2023-02-07T13:55:26.426Z,4.05
2023-02-07T13:58:12.393Z,4.88
2023-02-07T14:00:48.080Z,4.82
2023-02-07T14:03:35.674Z,4.00
2023-02-07T14:06:15.333Z,3.92
2023-02-07T14:08:44.225Z,4.20
2023-02-07T14:11:32.336Z,4.82
2023-02-07T14:14:12.912Z,4.97
2023-02-07T14:16:50.492Z,5.75
2023-02-07T14:19:40.333Z,4.78
2023-02-07T14:22:29.807Z,5.70
2023-02-07T14:24:59.560Z,5.40
2023-02-07T14:27:40.024Z,5.60
2023-02-07T14:30:13.086Z,4.03
2023-02-07T14:32:54.813Z,2.95
2023-02-07T14:35:21.462Z,4.07
2023-02-07T14:37:56.514Z,4.22
2023-02-07T14:40:31.237Z,5.45
2023-02-07T14:43:23.617Z,4.97
2023-02-07T14:45:56.310Z,6.63
2023-02-07T14:48:49.829Z,4.57
2023-02-07T14:51:30.762Z,6.68
2023-02-07T14:54:23.724Z,7.20
2023-02-07T14:59:48.681Z,4.63
2023-02-07T15:02:35.730Z,3.55
2023-02-07T15:05:30.705Z,5.78
2023-02-07T15:08:15.024Z,5.25
2023-02-07T15:10:54.766Z,3.70
2023-02-07T15:13:26.123Z,6.15
2023-02-07T15:16:12.467Z,5.80
2023-02-07T15:18:42.979Z,7.80
2023-02-07T15:21:43.356Z,7.47
2023-02-07T15:24:30.584Z,7.00
2023-02-07T15:27:03.384Z,9.55
2023-02-07T15:29:36.831Z,7.10
2023-02-07T15:32:34.849Z,5.88
2023-02-07T15:35:26.754Z,7.43
2023-02-07T15:37:54.454Z,6.05
2023-02-07T15:40:25.608Z,7.25
2023-02-07T15:42:56.410Z,8.23
2023-02-07T15:45:30.774Z,10.48
2023-02-07T15:48:01.136Z,9.55
2023-02-07T15:50:30.708Z,8.05
2023-02-07T15:53:00.087Z,7.88
2023-02-07T15:55:37.392Z,6.93
2023-02-07T15:58:05.902Z,7.15
2023-02-07T16:00:40.084Z,7.30
2023-02-07T16:03:14.785Z,9.65
2023-02-07T16:05:41.837Z,8.52
2023-02-07T16:08:35.940Z,9.00
2023-02-07T16:11:25.264Z,7.95
2023-02-07T16:14:02.046Z,7.10
2023-02-07T16:16:50.283Z,7.45
2023-02-07T16:19:20.608Z,9.77
2023-02-07T16:21:55.300Z,8.82
2023-02-07T16:24:24.443Z,9.77
2023-02-07T16:26:51.732Z,8.63
2023-02-07T16:29:23.005Z,8.73
2023-02-07T16:31:51.081Z,8.38
2023-02-07T16:34:19.777Z,9.98
2023-02-07T16:36:52.266Z,9.25
2023-02-07T16:39:19.149Z,8.68
2023-02-07T16:41:52.295Z,8.80
2023-02-07T16:44:24.655Z,8.05
2023-02-07T16:46:52.078Z,8.68
2023-02-07T16:49:22.689Z,8.88
2023-02-07T16:51:49.468Z,8.88
2023-02-07T16:54:16.553Z,9.25
2023-02-07T16:56:45.941Z,10.07
2023-02-07T16:59:23.647Z,8.05
2023-02-07T17:01:53.858Z,7.93
2023-02-07T17:04:21.589Z,8.38
2023-02-07T17:06:49.067Z,8.23
2023-02-07T17:09:24.787Z,9.02
2023-02-07T17:11:53.145Z,10.88
2023-02-07T17:14:19.886Z,8.20
2023-02-07T17:16:47.032Z,8.50
2023-02-07T17:19:19.007Z,8.00
2023-02-07T17:21:47.117Z,6.80
2023-02-07T17:24:14.558Z,8.23
2023-02-07T17:26:44.534Z,8.20
2023-02-07T17:29:13.337Z,7.55
2023-02-07T17:31:40.661Z,7.45
2023-02-07T17:34:08.001Z,7.32
2023-02-07T17:36:34.964Z,10.15
2023-02-07T17:39:02.603Z,8.85
2023-02-07T17:41:30.920Z,8.10
2023-02-07T17:43:57.649Z,7.00
2023-02-07T17:46:26.341Z,8.18
2023-02-07T17:48:54.288Z,7.15
2023-02-07T17:51:24.043Z,8.23
2023-02-07T17:53:51.205Z,5.75
2023-02-07T17:56:22.571Z,7.57
2023-02-07T17:58:49.976Z,7.18
2023-02-07T18:01:19.424Z,8.48
2023-02-07T18:03:48.576Z,8.32
2023-02-07T18:06:16.861Z,6.90
2023-02-07T18:08:44.727Z,8.07
2023-02-07T18:11:14.269Z,6.30
2023-02-07T18:13:46.348Z,9.57
2023-02-07T18:16:31.001Z,8.57
2023-02-07T18:18:58.079Z,8.32
2023-02-07T18:21:25.694Z,44.28
2023-02-07T18:23:53.481Z,21.45
2023-02-07T18:26:21.301Z,10.68
2023-02-07T18:28:48.554Z,9.30
2023-02-07T18:31:21.429Z,10.35
2023-02-07T18:33:48.832Z,8.98
2023-02-07T18:36:16.314Z,8.57
2023-02-07T18:38:43.188Z,8.18
2023-02-07T18:41:12.190Z,7.75
2023-02-07T18:43:43.174Z,9.52
2023-02-07T18:46:11.973Z,11.18
2023-02-07T18:48:39.117Z,9.07
2023-02-07T18:51:12.532Z,10.85
2023-02-07T18:53:39.653Z,10.02
2023-02-07T18:56:18.264Z,11.57
2023-02-07T18:58:49.186Z,10.93
2023-02-07T19:01:20.126Z,9.40
2023-02-07T19:03:54.121Z,9.82
2023-02-07T19:06:23.133Z,10.50
2023-02-07T19:08:50.062Z,9.80
2023-02-07T19:11:17.265Z,10.13
2023-02-07T19:13:44.113Z,9.32
2023-02-07T19:16:15.899Z,8.90
2023-02-07T19:18:42.600Z,12.00
2023-02-07T19:21:11.769Z,11.10
2023-02-07T19:23:40.082Z,10.10
2023-02-07T19:26:07.930Z,10.63
2023-02-07T19:28:36.544Z,9.57
2023-02-07T19:31:08.395Z,11.00
2023-02-07T19:33:36.028Z,7.82
2023-02-07T19:36:10.412Z,9.40
2023-02-07T19:38:37.561Z,9.68
2023-02-07T19:41:05.540Z,11.88
2023-02-07T19:43:32.576Z,10.57
2023-02-07T19:45:59.862Z,10.88
2023-02-07T19:48:26.860Z,12.57
2023-02-07T19:51:05.096Z,11.98
2023-02-07T19:53:32.350Z,11.80
2023-02-07T19:56:02.455Z,12.52
2023-02-07T19:58:30.926Z,10.38
2023-02-07T20:00:58.386Z,10.45
2023-02-07T20:03:26.012Z,11.82
2023-02-07T20:05:53.056Z,11.50
2023-02-07T20:08:20.783Z,10.10
2023-02-07T20:10:48.364Z,11.82
2023-02-07T20:13:15.925Z,11.43
2023-02-07T20:15:45.198Z,12.20
2023-02-07T20:18:13.015Z,12.10
2023-02-07T20:20:45.497Z,11.65
2023-02-07T20:23:13.962Z,12.57
2023-02-07T20:25:40.846Z,10.85
2023-02-07T20:28:08.908Z,11.35
2023-02-07T20:30:36.473Z,11.52
2023-02-07T20:33:03.319Z,11.48
2023-02-07T20:35:30.092Z,11.32
2023-02-07T20:37:56.896Z,11.70
2023-02-07T20:40:23.834Z,10.23
2023-02-07T20:42:50.540Z,11.98
2023-02-07T20:45:17.541Z,11.25
2023-02-07T20:47:44.295Z,11.45
2023-02-07T20:50:10.979Z,10.10
2023-02-07T20:52:37.661Z,11.10
2023-02-07T20:55:08.963Z,12.25
2023-02-07T20:57:35.827Z,12.88
2023-02-07T21:00:02.967Z,11.55
2023-02-07T21:02:29.758Z,12.02
2023-02-07T21:04:56.569Z,11.55
2023-02-07T21:07:24.542Z,11.18
2023-02-07T21:09:51.539Z,11.30
2023-02-07T21:12:18.537Z,12.48
2023-02-07T21:14:45.297Z,11.82
2023-02-07T21:17:12.857Z,10.57
2023-02-07T21:19:39.977Z,9.70
2023-02-07T21:22:07.731Z,11.52
2023-02-07T21:24:34.686Z,10.43
2023-02-07T21:27:03.142Z,11.65
2023-02-07T21:29:30.044Z,11.65
2023-02-07T21:31:56.888Z,11.15
2023-02-07T21:34:25.393Z,10.65
2023-02-07T21:36:52.541Z,12.38
2023-02-07T21:39:19.453Z,10.40
2023-02-07T21:41:47.772Z,11.10
2023-02-07T21:44:15.246Z,11.60
2023-02-07T21:46:46.956Z,10.70
2023-02-07T21:49:16.083Z,10.90
2023-02-07T21:51:45.057Z,9.25
2023-02-07T21:54:12.060Z,10.90
2023-02-07T21:56:41.792Z,10.85
2023-02-07T21:59:15.121Z,10.38
2023-02-07T22:01:43.077Z,10.88
2023-02-07T22:04:10.634Z,10.45
2023-02-07T22:06:41.737Z,11.80
2023-02-07T22:09:10.359Z,9.23
2023-02-07T22:11:37.687Z,11.13
2023-02-07T22:14:05.282Z,10.00
2023-02-07T22:16:33.098Z,9.98
2023-02-07T22:19:01.680Z,10.98
2023-02-07T22:21:31.628Z,11.10
2023-02-07T22:23:59.038Z,12.40
2023-02-07T22:26:27.128Z,11.25
2023-02-07T22:28:54.289Z,11.75
2023-02-07T22:31:26.834Z,11.75
2023-02-07T22:33:55.534Z,10.48
2023-02-07T22:36:26.343Z,12.73
2023-02-07T22:38:53.996Z,10.18
2023-02-07T22:41:22.842Z,11.20
2023-02-07T22:43:50.089Z,9.05
2023-02-07T22:46:20.433Z,8.82
2023-02-07T22:48:47.736Z,9.18
2023-02-07T22:51:22.235Z,8.25
2023-02-07T22:53:50.800Z,9.50
2023-02-07T22:56:17.599Z,10.48
2023-02-07T22:58:44.549Z,11.73
2023-02-07T23:01:29.067Z,11.93
2023-02-07T23:03:56.911Z,14.07
2023-02-07T23:06:25.501Z,14.55
2023-02-07T23:08:53.268Z,14.05
2023-02-07T23:11:22.159Z,12.43
2023-02-07T23:13:49.467Z,15.10
2023-02-07T23:16:19.067Z,13.10
2023-02-07T23:18:45.849Z,12.50
2023-02-07T23:21:15.156Z,13.25
2023-02-07T23:23:42.488Z,12.25
2023-02-07T23:26:11.443Z,12.80
2023-02-07T23:28:39.233Z,11.48
2023-02-07T23:31:07.567Z,11.88
2023-02-07T23:33:35.013Z,12.40
2023-02-07T23:36:02.092Z,11.13
2023-02-07T23:38:28.912Z,12.80
2023-02-07T23:40:56.727Z,11.38
2023-02-07T23:43:24.175Z,12.43
2023-02-07T23:45:51.077Z,11.93
2023-02-07T23:48:17.793Z,11.80
2023-02-07T23:50:44.554Z,10.73
2023-02-07T23:53:11.332Z,11.43
2023-02-07T23:55:42.048Z,12.15
2023-02-07T23:58:08.795Z,11.02
